createdAt,value
2018-11-21T00:01:26.531Z,32.07
2018-11-21T00:03:55.024Z,34.50
2018-11-21T00:06:23.442Z,35.17
2018-11-21T00:08:51.996Z,31.23
2018-11-21T00:11:20.469Z,36.67
2018-11-21T00:13:48.889Z,40.33
2018-11-21T00:16:17.383Z,34.73
2018-11-21T00:18:45.836Z,35.63
2018-11-21T00:21:14.258Z,39.93
2018-11-21T00:23:42.740Z,39.13
2018-11-21T00:26:11.528Z,38.47
2018-11-21T00:28:39.981Z,40.37
2018-11-21T00:31:09.151Z,42.77
2018-11-21T00:33:37.568Z,36.73
2018-11-21T00:36:06.048Z,36.70
2018-11-21T00:38:34.486Z,40.07
2018-11-21T00:41:03.260Z,43.27
2018-11-21T00:43:31.709Z,42.63
2018-11-21T00:46:00.122Z,41.20
2018-11-21T00:48:28.581Z,39.90
2018-11-21T00:50:57.039Z,41.60
2018-11-21T00:53:25.804Z,40.67
2018-11-21T00:55:54.295Z,44.53
2018-11-21T00:58:22.776Z,39.77
2018-11-21T01:00:51.190Z,38.33
2018-11-21T01:03:19.655Z,40.77
2018-11-21T01:05:48.272Z,43.97
2018-11-21T01:08:16.773Z,44.63
2018-11-21T01:10:45.282Z,50.33
2018-11-21T01:13:13.789Z,41.73
2018-11-21T01:15:42.579Z,44.17
2018-11-21T01:18:11.589Z,48.97
2018-11-21T01:20:40.006Z,49.97
2018-11-21T01:23:08.487Z,44.47
2018-11-21T01:25:36.928Z,49.70
2018-11-21T01:28:05.358Z,49.50
2018-11-21T01:30:33.841Z,49.13
2018-11-21T01:33:02.272Z,45.90
2018-11-21T01:35:31.113Z,52.60
2018-11-21T01:37:59.970Z,47.33
2018-11-21T01:40:28.385Z,52.10
2018-11-21T01:42:56.858Z,49.23
2018-11-21T01:45:25.356Z,50.80
2018-11-21T01:47:53.798Z,55.70
2018-11-21T01:50:22.564Z,42.07
2018-11-21T01:52:50.983Z,53.83
2018-11-21T01:55:19.884Z,52.47
2018-11-21T01:57:48.396Z,52.23
2018-11-21T02:00:16.818Z,56.60
2018-11-21T02:02:45.306Z,56.30
2018-11-21T02:05:13.734Z,52.17
2018-11-21T02:07:42.178Z,50.50
2018-11-21T02:10:10.649Z,48.17
2018-11-21T02:12:39.092Z,60.27
2018-11-21T02:15:07.704Z,56.67
2018-11-21T02:17:36.196Z,48.33
2018-11-21T02:20:05.033Z,56.53
2018-11-21T02:22:33.571Z,50.93
2018-11-21T02:25:02.043Z,57.77
2018-11-21T02:27:30.541Z,50.50
2018-11-21T02:29:59.050Z,55.43
2018-11-21T02:32:27.954Z,56.37
2018-11-21T02:34:56.470Z,52.07
2018-11-21T02:37:25.345Z,57.17
2018-11-21T02:39:54.199Z,56.50
2018-11-21T02:42:22.725Z,50.73
2018-11-21T02:44:51.189Z,48.20
2018-11-21T02:47:19.722Z,53.93
2018-11-21T02:49:48.253Z,55.70
2018-11-21T02:52:16.747Z,48.90
2018-11-21T02:54:45.290Z,52.03
2018-11-21T02:57:30.813Z,49.47
2018-11-21T03:00:07.738Z,54.23
2018-11-21T03:02:36.285Z,59.70
2018-11-21T03:05:05.095Z,53.05
2018-11-21T03:07:33.603Z,47.87
2018-11-21T03:10:02.108Z,55.63
2018-11-21T03:12:31.900Z,60.50
2018-11-21T03:15:00.434Z,51.07
2018-11-21T03:17:28.926Z,53.50
2018-11-21T03:19:57.403Z,49.23
2018-11-21T03:22:26.059Z,55.50
2018-11-21T03:24:54.517Z,54.73
2018-11-21T03:27:23.381Z,50.60
2018-11-21T03:29:52.284Z,53.07
2018-11-21T03:32:20.778Z,52.60
2018-11-21T03:34:49.289Z,57.67
2018-11-21T03:37:17.886Z,59.27
2018-11-21T03:39:47.141Z,54.37
2018-11-21T03:42:15.641Z,47.27
2018-11-21T03:44:44.158Z,52.43
2018-11-21T03:47:12.644Z,52.90
2018-11-21T03:49:41.532Z,53.70
2018-11-21T03:52:10.025Z,49.60
2018-11-21T03:54:38.539Z,50.17
2018-11-21T03:58:03.202Z,48.13
2018-11-21T04:00:31.667Z,53.27
2018-11-21T04:03:00.166Z,53.30
2018-11-21T04:05:28.705Z,53.10
2018-11-21T04:07:57.100Z,48.77
2018-11-21T04:10:25.594Z,55.57
2018-11-21T04:12:54.030Z,52.30
2018-11-21T04:15:22.500Z,52.63
2018-11-21T04:17:50.971Z,54.93
2018-11-21T04:20:19.730Z,48.93
2018-11-21T04:22:48.179Z,54.03
2018-11-21T04:25:16.624Z,55.38
2018-11-21T04:27:45.067Z,51.60
2018-11-21T04:30:13.998Z,52.00
2018-11-21T04:32:42.953Z,51.00
2018-11-21T04:35:11.411Z,53.10
2018-11-21T04:37:40.306Z,52.53
2018-11-21T04:40:08.740Z,53.03
2018-11-21T04:42:37.813Z,51.80
2018-11-21T04:45:07.635Z,54.40
2018-11-21T04:47:36.086Z,50.47
2018-11-21T04:50:05.242Z,51.50
2018-11-21T04:52:33.845Z,51.00
2018-11-21T04:55:02.627Z,51.83
2018-11-21T04:57:31.065Z,50.00
2018-11-21T05:00:00.224Z,52.03
2018-11-21T05:02:28.777Z,56.63
2018-11-21T05:04:57.198Z,54.93
2018-11-21T05:07:25.904Z,55.47
2018-11-21T05:09:54.368Z,53.43
2018-11-21T05:12:22.810Z,57.93
2018-11-21T05:14:51.262Z,55.50
2018-11-21T05:17:19.727Z,50.53
2018-11-21T05:19:48.173Z,60.10
2018-11-21T05:22:16.644Z,61.00
2018-11-21T05:24:45.440Z,60.90
2018-11-21T05:27:13.896Z,58.03
2018-11-21T05:29:42.383Z,61.17
2018-11-21T05:32:11.185Z,57.07
2018-11-21T05:34:40.003Z,61.20
2018-11-21T05:37:08.898Z,57.80
2018-11-21T05:39:37.329Z,61.73
2018-11-21T05:42:05.947Z,65.03
2018-11-21T05:44:34.392Z,64.73
2018-11-21T05:47:02.840Z,71.13
2018-11-21T05:49:31.703Z,63.47
2018-11-21T05:52:00.130Z,58.33
2018-11-21T05:54:28.659Z,69.13
2018-11-21T05:56:57.146Z,63.23
2018-11-21T05:59:25.562Z,65.57
2018-11-21T06:01:54.033Z,60.77
2018-11-21T06:04:22.453Z,61.80
2018-11-21T06:06:50.905Z,66.67
2018-11-21T06:09:19.352Z,65.90
2018-11-21T06:11:48.186Z,58.23
2018-11-21T06:14:16.648Z,58.50
2018-11-21T06:16:45.385Z,69.80
2018-11-21T06:19:14.204Z,58.10
2018-11-21T06:21:42.684Z,64.23
2018-11-21T06:24:11.105Z,59.97
2018-11-21T06:26:39.549Z,70.17
2018-11-21T06:29:08.024Z,66.47
2018-11-21T06:31:36.449Z,56.23
2018-11-21T06:34:04.913Z,55.87
2018-11-21T06:36:33.425Z,61.70
2018-11-21T06:39:02.289Z,65.00
2018-11-21T06:41:30.814Z,51.90
2018-11-21T06:43:59.250Z,62.67
2018-11-21T06:46:27.786Z,62.53
2018-11-21T06:48:56.239Z,66.00
2018-11-21T06:51:25.072Z,54.83
2018-11-21T06:53:53.609Z,55.07
2018-11-21T06:56:22.140Z,61.37
2018-11-21T06:58:55.098Z,58.93
2018-11-21T07:01:19.028Z,50.27
2018-11-21T07:03:47.463Z,54.93
2018-11-21T07:06:15.965Z,53.93
2018-11-21T07:08:44.604Z,58.90
2018-11-21T07:11:13.052Z,58.13
2018-11-21T07:13:41.519Z,58.60
2018-11-21T07:16:10.363Z,57.13
2018-11-21T07:18:38.859Z,46.90
2018-11-21T07:21:07.313Z,53.50
2018-11-21T07:23:36.067Z,56.30
2018-11-21T07:26:04.894Z,54.17
2018-11-21T07:28:33.367Z,56.57
2018-11-21T07:31:01.804Z,52.90
2018-11-21T07:33:30.290Z,50.93
2018-11-21T07:35:58.752Z,59.63
2018-11-21T07:38:27.361Z,59.20
2018-11-21T07:40:55.910Z,61.40
2018-11-21T07:43:24.338Z,56.60
2018-11-21T07:45:52.780Z,65.23
2018-11-21T07:48:21.260Z,59.13
2018-11-21T07:50:49.668Z,52.87
2018-11-21T07:53:18.235Z,52.83
2018-11-21T07:55:46.678Z,47.67
2018-11-21T07:58:20.030Z,53.43
2018-11-21T08:01:24.297Z,55.17
2018-11-21T08:03:57.633Z,52.63
2018-11-21T08:06:47.941Z,46.77
2018-11-21T08:09:41.477Z,54.77
2018-11-21T08:12:34.827Z,51.40
2018-11-21T08:15:40.643Z,50.30
2018-11-21T08:18:28.563Z,57.53
2018-11-21T08:21:16.156Z,52.57
2018-11-21T08:24:09.803Z,47.60
2018-11-21T08:26:59.984Z,54.93
2018-11-21T08:29:28.445Z,52.73
2018-11-21T08:31:56.919Z,53.40
2018-11-21T08:34:25.339Z,50.13
2018-11-21T08:36:53.812Z,58.63
2018-11-21T08:39:22.589Z,49.73
2018-11-21T08:41:51.422Z,59.20
2018-11-21T08:44:19.868Z,63.57
2018-11-21T08:46:48.276Z,51.57
2018-11-21T08:49:16.715Z,52.43
2018-11-21T08:51:45.185Z,53.50
2018-11-21T08:54:13.622Z,51.97
2018-11-21T08:56:42.079Z,55.70
2018-11-21T08:59:10.899Z,49.53
2018-11-21T09:01:39.331Z,60.87
2018-11-21T09:04:08.144Z,54.90
2018-11-21T09:06:36.580Z,53.47
2018-11-21T09:09:08.442Z,56.53
2018-11-21T09:11:36.887Z,57.93
2018-11-21T09:14:05.365Z,54.07
2018-11-21T09:16:33.891Z,59.23
2018-11-21T09:19:02.387Z,58.70
2018-11-21T09:21:31.172Z,51.07
2018-11-21T09:23:59.631Z,53.13
2018-11-21T09:26:28.067Z,52.53
2018-11-21T09:28:56.495Z,57.40
2018-11-21T09:31:25.304Z,53.37
2018-11-21T09:33:54.104Z,53.90
2018-11-21T09:36:22.613Z,53.93
2018-11-21T09:38:51.031Z,49.97
2018-11-21T09:41:19.437Z,51.87
2018-11-21T09:43:47.982Z,54.70
2018-11-21T09:46:17.358Z,51.10
2018-11-21T09:48:44.846Z,47.33
2018-11-21T09:51:13.317Z,51.33
2018-11-21T09:53:41.810Z,53.50
2018-11-21T09:56:10.611Z,51.00
2018-11-21T09:58:39.065Z,45.17
2018-11-21T10:01:44.177Z,50.03
2018-11-21T10:04:12.621Z,53.00
2018-11-21T10:06:42.752Z,52.53
2018-11-21T10:09:22.860Z,45.37
2018-11-21T10:11:51.292Z,55.10
2018-11-21T10:14:20.144Z,50.67
2018-11-21T10:16:48.871Z,51.30
2018-11-21T10:19:17.334Z,55.67
2018-11-21T10:21:45.802Z,42.73
2018-11-21T10:24:14.216Z,52.07
2018-11-21T10:26:43.057Z,50.87
2018-11-21T10:29:11.597Z,50.57
2018-11-21T10:31:40.006Z,55.93
2018-11-21T10:34:08.840Z,49.73
2018-11-21T10:36:37.269Z,51.93
2018-11-21T10:39:08.453Z,54.07
2018-11-21T10:41:36.942Z,55.43
2018-11-21T10:44:05.758Z,47.87
2018-11-21T10:46:34.567Z,54.08
2018-11-21T10:49:03.010Z,52.53
2018-11-21T10:51:31.441Z,51.70
2018-11-21T10:53:59.909Z,53.70
2018-11-21T10:56:28.387Z,57.30
2018-11-21T10:58:56.837Z,55.70
2018-11-21T11:01:42.987Z,54.80
2018-11-21T11:04:30.843Z,50.63
2018-11-21T11:07:21.422Z,52.77
2018-11-21T11:10:07.799Z,53.77
2018-11-21T11:13:01.227Z,54.27
2018-11-21T11:15:47.792Z,55.03
2018-11-21T11:18:38.190Z,57.43
2018-11-21T11:21:40.727Z,56.50
2018-11-21T11:24:27.917Z,55.20
2018-11-21T11:27:14.378Z,52.20
2018-11-21T11:30:01.977Z,55.47
2018-11-21T11:32:48.399Z,53.70
2018-11-21T11:35:54.117Z,53.63
2018-11-21T11:38:54.145Z,54.20
2018-11-21T11:41:44.620Z,52.73
2018-11-21T11:44:32.630Z,59.37
2018-11-21T11:47:35.207Z,59.00
2018-11-21T11:50:18.669Z,52.50
2018-11-21T11:53:09.193Z,48.97
2018-11-21T11:55:55.639Z,54.10
2018-11-21T11:58:34.269Z,46.93
2018-11-21T12:01:24.659Z,47.43
2018-11-21T12:04:10.941Z,50.43
2018-11-21T12:06:57.371Z,50.20
2018-11-21T12:09:43.670Z,56.43
2018-11-21T12:12:30.076Z,53.17
2018-11-21T12:15:16.623Z,56.33
2018-11-21T12:18:02.689Z,48.07
2018-11-21T12:20:49.374Z,50.17
2018-11-21T12:23:35.803Z,57.10
2018-11-21T12:26:25.842Z,51.40
2018-11-21T12:29:12.258Z,48.70
2018-11-21T12:32:09.395Z,54.77
2018-11-21T12:35:12.055Z,55.67
2018-11-21T12:37:58.078Z,53.27
2018-11-21T12:40:44.586Z,51.77
2018-11-21T12:43:30.761Z,51.67
2018-11-21T12:46:17.240Z,50.73
2018-11-21T12:48:58.556Z,52.07
2018-11-21T12:51:48.980Z,58.97
2018-11-21T12:54:54.957Z,55.47
2018-11-21T12:57:41.348Z,56.57
2018-11-21T13:00:34.729Z,71.67
2018-11-21T13:03:31.122Z,57.43
2018-11-21T13:06:18.677Z,71.43
2018-11-21T13:08:53.600Z,69.93
2018-11-21T13:11:50.191Z,67.77
2018-11-21T13:14:39.378Z,64.73
2018-11-21T13:17:35.389Z,69.97
2018-11-21T13:20:22.971Z,60.40
2018-11-21T13:23:09.817Z,119.80
2018-11-21T13:26:16.102Z,57.67
2018-11-21T13:29:02.584Z,53.47
2018-11-21T13:32:03.044Z,52.00
2018-11-21T13:34:50.692Z,53.00
2018-11-21T13:37:49.565Z,57.83
2018-11-21T13:40:42.932Z,58.30
2018-11-21T13:43:33.388Z,51.10
2018-11-21T13:46:23.946Z,50.27
2018-11-21T13:49:11.877Z,54.67
2018-11-21T13:51:58.220Z,51.63
2018-11-21T13:54:41.104Z,51.53
2018-11-21T13:57:09.540Z,50.80
2018-11-21T13:59:38.400Z,47.33
2018-11-21T14:02:07.024Z,53.57
2018-11-21T14:04:35.711Z,49.93
2018-11-21T14:07:04.188Z,54.03
2018-11-21T14:09:32.627Z,50.17
2018-11-21T14:12:01.045Z,45.77
2018-11-21T14:14:29.518Z,46.70
2018-11-21T14:16:57.982Z,49.50
2018-11-21T14:19:26.414Z,46.87
2018-11-21T14:21:55.911Z,51.33
2018-11-21T14:24:23.654Z,48.07
2018-11-21T14:26:52.154Z,48.80
2018-11-21T14:29:20.603Z,45.03
2018-11-21T14:31:49.047Z,48.13
2018-11-21T14:34:17.575Z,51.13
2018-11-21T14:36:46.021Z,48.03
2018-11-21T14:39:15.145Z,53.50
2018-11-21T14:41:44.668Z,52.87
2018-11-21T14:44:13.799Z,49.47
2018-11-21T14:46:44.036Z,54.87
2018-11-21T14:49:12.470Z,50.07
2018-11-21T14:51:40.899Z,55.70
2018-11-21T14:54:09.382Z,57.73
2018-11-21T14:56:38.174Z,57.97
2018-11-21T14:59:06.684Z,51.37
2018-11-21T15:01:35.271Z,57.60
2018-11-21T15:04:03.710Z,51.90
2018-11-21T15:06:32.165Z,51.67
2018-11-21T15:09:00.661Z,48.97
2018-11-21T15:11:29.083Z,55.70
2018-11-21T15:13:57.959Z,55.80
2018-11-21T15:16:26.739Z,59.73
2018-11-21T15:18:55.285Z,52.47
2018-11-21T15:21:24.752Z,50.83
2018-11-21T15:23:53.187Z,57.57
2018-11-21T15:26:21.658Z,57.03
2018-11-21T15:28:50.493Z,60.03
2018-11-21T15:31:19.054Z,55.07
2018-11-21T15:33:47.540Z,55.97
2018-11-21T15:36:15.969Z,57.67
2018-11-21T15:38:44.774Z,59.27
2018-11-21T15:41:13.272Z,70.23
2018-11-21T15:43:41.693Z,61.83
2018-11-21T15:46:10.164Z,63.83
2018-11-21T15:48:38.602Z,66.80
2018-11-21T15:51:07.094Z,69.17
2018-11-21T15:53:35.532Z,62.90
2018-11-21T15:56:04.019Z,68.40
2018-11-21T15:58:32.798Z,72.53
2018-11-21T16:01:01.242Z,60.97
2018-11-21T16:03:30.038Z,71.63
2018-11-21T16:05:58.463Z,70.47
2018-11-21T16:08:27.233Z,66.83
2018-11-21T16:10:55.705Z,68.97
2018-11-21T16:13:24.133Z,72.33
2018-11-21T16:15:53.869Z,65.10
2018-11-21T16:18:24.106Z,73.10
2018-11-21T16:20:52.936Z,69.07
2018-11-21T16:23:21.431Z,70.57
2018-11-21T16:25:50.381Z,74.80
2018-11-21T16:28:18.802Z,69.13
2018-11-21T16:30:47.607Z,65.10
2018-11-21T16:33:16.056Z,63.67
2018-11-21T16:35:44.522Z,68.33
2018-11-21T16:38:12.968Z,57.53
2018-11-21T16:40:41.382Z,71.57
2018-11-21T16:43:09.924Z,57.33
2018-11-21T16:45:41.163Z,54.20
2018-11-21T16:48:09.600Z,56.20
2018-11-21T16:50:38.073Z,59.90
2018-11-21T16:53:06.566Z,55.40
2018-11-21T16:55:35.111Z,58.67
2018-11-21T16:58:03.872Z,57.70
2018-11-21T17:00:32.652Z,68.67
2018-11-21T17:03:01.464Z,59.10
2018-11-21T17:05:30.074Z,54.57
2018-11-21T17:07:58.516Z,63.93
2018-11-21T17:10:28.534Z,62.00
2018-11-21T17:12:56.957Z,56.53
2018-11-21T17:15:26.809Z,68.13
2018-11-21T17:17:55.288Z,60.73
2018-11-21T17:20:25.496Z,56.63
2018-11-21T17:22:55.220Z,66.47
2018-11-21T17:25:25.544Z,55.23
